sensor_id;sensor_type;location;lat;lon;timestamp;P1;durP1;ratioP1;P2;durP2;ratioP2
58214;SDS011;44011;52.218;1.480;2022-12-20T00:02:20;16.63;;;4.35;;
58214;SDS011;44011;52.218;1.480;2022-12-20T00:04:45;16.50;;;5.22;;
58214;SDS011;44011;52.218;1.480;2022-12-20T00:07:10;11.32;;;3.70;;
58214;SDS011;44011;52.218;1.480;2022-12-20T00:09:36;18.35;;;4.40;;
58214;SDS011;44011;52.218;1.480;2022-12-20T00:12:01;11.60;;;3.53;;
58214;SDS011;44011;52.218;1.480;2022-12-20T00:14:27;14.13;;;5.07;;
58214;SDS011;44011;52.218;1.480;2022-12-20T00:16:54;14.80;;;4.85;;
58214;SDS011;44011;52.218;1.480;2022-12-20T00:19:32;13.27;;;3.40;;
58214;SDS011;44011;52.218;1.480;2022-12-20T00:24:32;9.82;;;3.47;;
58214;SDS011;44011;52.218;1.480;2022-12-20T00:26:57;11.82;;;3.80;;
58214;SDS011;44011;52.218;1.480;2022-12-20T00:29:23;7.82;;;4.10;;
58214;SDS011;44011;52.218;1.480;2022-12-20T00:31:48;8.65;;;3.53;;
58214;SDS011;44011;52.218;1.480;2022-12-20T00:34:14;13.18;;;3.50;;
58214;SDS011;44011;52.218;1.480;2022-12-20T00:36:39;13.80;;;3.55;;
58214;SDS011;44011;52.218;1.480;2022-12-20T00:39:05;10.30;;;3.40;;
58214;SDS011;44011;52.218;1.480;2022-12-20T00:41:31;12.30;;;3.03;;
58214;SDS011;44011;52.218;1.480;2022-12-20T00:43:57;11.88;;;3.63;;
58214;SDS011;44011;52.218;1.480;2022-12-20T00:46:22;13.75;;;4.45;;
58214;SDS011;44011;52.218;1.480;2022-12-20T00:48:49;10.00;;;4.18;;
58214;SDS011;44011;52.218;1.480;2022-12-20T00:51:15;12.55;;;3.88;;
58214;SDS011;44011;52.218;1.480;2022-12-20T00:53:41;12.75;;;3.67;;
58214;SDS011;44011;52.218;1.480;2022-12-20T00:56:07;15.60;;;4.18;;
58214;SDS011;44011;52.218;1.480;2022-12-20T00:58:34;14.98;;;5.72;;
58214;SDS011;44011;52.218;1.480;2022-12-20T01:01:00;12.40;;;3.45;;
58214;SDS011;44011;52.218;1.480;2022-12-20T01:03:25;12.32;;;3.70;;
58214;SDS011;44011;52.218;1.480;2022-12-20T01:08:17;13.10;;;4.22;;
58214;SDS011;44011;52.218;1.480;2022-12-20T01:10:42;18.65;;;4.18;;
58214;SDS011;44011;52.218;1.480;2022-12-20T01:13:07;13.68;;;4.53;;
58214;SDS011;44011;52.218;1.480;2022-12-20T01:15:33;12.60;;;3.38;;
58214;SDS011;44011;52.218;1.480;2022-12-20T01:17:58;20.88;;;4.43;;
58214;SDS011;44011;52.218;1.480;2022-12-20T01:20:23;14.95;;;3.72;;
58214;SDS011;44011;52.218;1.480;2022-12-20T01:22:49;18.48;;;4.38;;
58214;SDS011;44011;52.218;1.480;2022-12-20T01:25:14;11.93;;;3.90;;
58214;SDS011;44011;52.218;1.480;2022-12-20T01:27:40;14.50;;;4.25;;
58214;SDS011;44011;52.218;1.480;2022-12-20T01:30:05;11.25;;;4.00;;
58214;SDS011;44011;52.218;1.480;2022-12-20T01:32:31;12.60;;;4.57;;
58214;SDS011;44011;52.218;1.480;2022-12-20T01:34:56;12.60;;;4.63;;
58214;SDS011;44011;52.218;1.480;2022-12-20T01:37:21;11.48;;;4.55;;
58214;SDS011;44011;52.218;1.480;2022-12-20T01:39:47;15.07;;;4.90;;
58214;SDS011;44011;52.218;1.480;2022-12-20T01:42:15;12.52;;;4.43;;
58214;SDS011;44011;52.218;1.480;2022-12-20T01:47:05;15.38;;;5.15;;
58214;SDS011;44011;52.218;1.480;2022-12-20T01:49:32;10.48;;;3.97;;
58214;SDS011;44011;52.218;1.480;2022-12-20T01:52:04;12.40;;;4.20;;
58214;SDS011;44011;52.218;1.480;2022-12-20T01:54:31;12.13;;;4.38;;
58214;SDS011;44011;52.218;1.480;2022-12-20T01:56:59;18.13;;;4.68;;
58214;SDS011;44011;52.218;1.480;2022-12-20T01:59:26;23.40;;;4.72;;
58214;SDS011;44011;52.218;1.480;2022-12-20T02:01:52;15.15;;;4.20;;
58214;SDS011;44011;52.218;1.480;2022-12-20T02:04:20;14.10;;;4.28;;
58214;SDS011;44011;52.218;1.480;2022-12-20T02:06:45;14.63;;;4.67;;
58214;SDS011;44011;52.218;1.480;2022-12-20T02:09:10;9.70;;;4.15;;
58214;SDS011;44011;52.218;1.480;2022-12-20T02:11:47;14.50;;;4.03;;
58214;SDS011;44011;52.218;1.480;2022-12-20T02:30:16;13.77;;;4.90;;
58214;SDS011;44011;52.218;1.480;2022-12-20T02:32:51;14.25;;;4.70;;
58214;SDS011;44011;52.218;1.480;2022-12-20T02:35:19;9.30;;;4.07;;
58214;SDS011;44011;52.218;1.480;2022-12-20T02:37:55;15.25;;;4.68;;
58214;SDS011;44011;52.218;1.480;2022-12-20T02:40:23;13.77;;;4.22;;
58214;SDS011;44011;52.218;1.480;2022-12-20T02:42:50;13.60;;;4.68;;
58214;SDS011;44011;52.218;1.480;2022-12-20T02:45:17;18.30;;;4.38;;
58214;SDS011;44011;52.218;1.480;2022-12-20T02:50:10;15.63;;;4.32;;
58214;SDS011;44011;52.218;1.480;2022-12-20T02:52:36;24.55;;;5.63;;
58214;SDS011;44011;52.218;1.480;2022-12-20T02:55:02;18.67;;;4.78;;
58214;SDS011;44011;52.218;1.480;2022-12-20T02:57:31;15.82;;;4.50;;
58214;SDS011;44011;52.218;1.480;2022-12-20T03:00:03;17.38;;;5.10;;
58214;SDS011;44011;52.218;1.480;2022-12-20T03:02:29;17.02;;;5.15;;
58214;SDS011;44011;52.218;1.480;2022-12-20T03:05:15;13.82;;;4.75;;
58214;SDS011;44011;52.218;1.480;2022-12-20T03:07:41;14.40;;;4.35;;
58214;SDS011;44011;52.218;1.480;2022-12-20T03:10:07;10.82;;;4.40;;
58214;SDS011;44011;52.218;1.480;2022-12-20T03:12:32;13.80;;;4.50;;
58214;SDS011;44011;52.218;1.480;2022-12-20T03:14:57;15.80;;;4.57;;
58214;SDS011;44011;52.218;1.480;2022-12-20T03:17:23;18.13;;;5.38;;
58214;SDS011;44011;52.218;1.480;2022-12-20T03:19:48;9.02;;;3.90;;
58214;SDS011;44011;52.218;1.480;2022-12-20T03:22:13;11.48;;;4.55;;
58214;SDS011;44011;52.218;1.480;2022-12-20T03:24:39;13.63;;;4.15;;
58214;SDS011;44011;52.218;1.480;2022-12-20T03:27:05;15.40;;;4.47;;
58214;SDS011;44011;52.218;1.480;2022-12-20T03:29:30;13.55;;;4.00;;
58214;SDS011;44011;52.218;1.480;2022-12-20T03:31:56;20.25;;;4.60;;
58214;SDS011;44011;52.218;1.480;2022-12-20T03:34:21;18.23;;;4.32;;
58214;SDS011;44011;52.218;1.480;2022-12-20T03:36:46;10.52;;;4.57;;
58214;SDS011;44011;52.218;1.480;2022-12-20T03:39:11;13.23;;;4.15;;
58214;SDS011;44011;52.218;1.480;2022-12-20T03:41:37;16.08;;;5.18;;
58214;SDS011;44011;52.218;1.480;2022-12-20T03:44:02;15.00;;;5.00;;
58214;SDS011;44011;52.218;1.480;2022-12-20T03:46:28;14.68;;;4.50;;
58214;SDS011;44011;52.218;1.480;2022-12-20T03:48:53;15.73;;;4.95;;
58214;SDS011;44011;52.218;1.480;2022-12-20T03:51:18;19.27;;;4.38;;
58214;SDS011;44011;52.218;1.480;2022-12-20T03:53:44;25.25;;;5.50;;
58214;SDS011;44011;52.218;1.480;2022-12-20T03:56:09;16.65;;;5.63;;
58214;SDS011;44011;52.218;1.480;2022-12-20T03:58:35;23.88;;;5.95;;
58214;SDS011;44011;52.218;1.480;2022-12-20T04:01:00;15.95;;;5.28;;
58214;SDS011;44011;52.218;1.480;2022-12-20T04:03:25;10.43;;;4.95;;
58214;SDS011;44011;52.218;1.480;2022-12-20T04:05:51;15.63;;;5.20;;
58214;SDS011;44011;52.218;1.480;2022-12-20T04:08:16;13.07;;;5.40;;
58214;SDS011;44011;52.218;1.480;2022-12-20T04:10:41;13.73;;;5.25;;
58214;SDS011;44011;52.218;1.480;2022-12-20T04:13:25;18.40;;;6.55;;
58214;SDS011;44011;52.218;1.480;2022-12-20T04:15:50;14.63;;;5.43;;
58214;SDS011;44011;52.218;1.480;2022-12-20T04:18:16;18.10;;;7.40;;
58214;SDS011;44011;52.218;1.480;2022-12-20T04:20:41;13.38;;;6.88;;
58214;SDS011;44011;52.218;1.480;2022-12-20T04:23:07;9.32;;;5.80;;
58214;SDS011;44011;52.218;1.480;2022-12-20T04:25:32;26.52;;;6.45;;
58214;SDS011;44011;52.218;1.480;2022-12-20T04:27:57;21.60;;;8.15;;
58214;SDS011;44011;52.218;1.480;2022-12-20T04:30:22;14.95;;;4.95;;
58214;SDS011;44011;52.218;1.480;2022-12-20T04:32:48;10.40;;;4.88;;
58214;SDS011;44011;52.218;1.480;2022-12-20T04:35:13;12.88;;;5.43;;
58214;SDS011;44011;52.218;1.480;2022-12-20T04:37:39;37.97;;;9.90;;
58214;SDS011;44011;52.218;1.480;2022-12-20T04:40:04;15.63;;;5.47;;
58214;SDS011;44011;52.218;1.480;2022-12-20T04:42:30;10.07;;;5.50;;
58214;SDS011;44011;52.218;1.480;2022-12-20T04:44:55;12.88;;;5.80;;
58214;SDS011;44011;52.218;1.480;2022-12-20T04:47:21;18.77;;;7.30;;
58214;SDS011;44011;52.218;1.480;2022-12-20T04:49:46;13.63;;;5.30;;
58214;SDS011;44011;52.218;1.480;2022-12-20T04:52:11;19.77;;;6.80;;
58214;SDS011;44011;52.218;1.480;2022-12-20T04:54:55;16.58;;;5.20;;
58214;SDS011;44011;52.218;1.480;2022-12-20T04:57:21;13.50;;;6.53;;
58214;SDS011;44011;52.218;1.480;2022-12-20T04:59:46;17.08;;;5.40;;
58214;SDS011;44011;52.218;1.480;2022-12-20T05:02:12;13.20;;;5.63;;
58214;SDS011;44011;52.218;1.480;2022-12-20T05:04:37;18.15;;;5.50;;
58214;SDS011;44011;52.218;1.480;2022-12-20T05:07:02;17.48;;;5.45;;
58214;SDS011;44011;52.218;1.480;2022-12-20T05:09:28;15.98;;;5.55;;
58214;SDS011;44011;52.218;1.480;2022-12-20T05:11:53;12.82;;;4.85;;
58214;SDS011;44011;52.218;1.480;2022-12-20T05:14:18;9.80;;;4.88;;
58214;SDS011;44011;52.218;1.480;2022-12-20T05:16:44;17.05;;;5.70;;
58214;SDS011;44011;52.218;1.480;2022-12-20T05:19:09;15.35;;;4.90;;
58214;SDS011;44011;52.218;1.480;2022-12-20T05:21:34;12.02;;;4.82;;
58214;SDS011;44011;52.218;1.480;2022-12-20T05:24:18;17.45;;;5.60;;
58214;SDS011;44011;52.218;1.480;2022-12-20T05:27:02;19.17;;;5.07;;
58214;SDS011;44011;52.218;1.480;2022-12-20T05:29:27;15.55;;;5.75;;
58214;SDS011;44011;52.218;1.480;2022-12-20T05:31:53;11.00;;;6.07;;
58214;SDS011;44011;52.218;1.480;2022-12-20T05:34:19;21.65;;;5.53;;
58214;SDS011;44011;52.218;1.480;2022-12-20T05:36:44;14.68;;;4.97;;
58214;SDS011;44011;52.218;1.480;2022-12-20T05:39:10;15.90;;;5.47;;
58214;SDS011;44011;52.218;1.480;2022-12-20T05:41:38;12.80;;;4.75;;
58214;SDS011;44011;52.218;1.480;2022-12-20T05:44:05;15.63;;;5.28;;
58214;SDS011;44011;52.218;1.480;2022-12-20T05:46:30;12.60;;;5.82;;
58214;SDS011;44011;52.218;1.480;2022-12-20T05:48:56;17.50;;;5.65;;
58214;SDS011;44011;52.218;1.480;2022-12-20T05:51:21;17.60;;;5.88;;
58214;SDS011;44011;52.218;1.480;2022-12-20T05:53:46;10.73;;;4.18;;
58214;SDS011;44011;52.218;1.480;2022-12-20T05:56:12;16.20;;;5.38;;
58214;SDS011;44011;52.218;1.480;2022-12-20T05:58:37;15.93;;;5.13;;
58214;SDS011;44011;52.218;1.480;2022-12-20T06:01:03;15.27;;;6.55;;
58214;SDS011;44011;52.218;1.480;2022-12-20T06:03:29;12.07;;;5.00;;
58214;SDS011;44011;52.218;1.480;2022-12-20T06:05:55;16.23;;;4.40;;
58214;SDS011;44011;52.218;1.480;2022-12-20T06:08:20;13.77;;;5.03;;
58214;SDS011;44011;52.218;1.480;2022-12-20T06:10:47;12.40;;;4.80;;
58214;SDS011;44011;52.218;1.480;2022-12-20T06:13:13;13.02;;;6.15;;
58214;SDS011;44011;52.218;1.480;2022-12-20T06:15:38;12.05;;;5.18;;
58214;SDS011;44011;52.218;1.480;2022-12-20T06:18:04;16.05;;;5.35;;
58214;SDS011;44011;52.218;1.480;2022-12-20T06:20:30;16.80;;;6.47;;
58214;SDS011;44011;52.218;1.480;2022-12-20T06:22:55;16.90;;;5.13;;
58214;SDS011;44011;52.218;1.480;2022-12-20T06:25:20;14.05;;;4.30;;
58214;SDS011;44011;52.218;1.480;2022-12-20T06:27:47;17.20;;;5.60;;
58214;SDS011;44011;52.218;1.480;2022-12-20T06:30:12;11.13;;;4.50;;
58214;SDS011;44011;52.218;1.480;2022-12-20T06:32:38;19.00;;;5.65;;
58214;SDS011;44011;52.218;1.480;2022-12-20T06:35:03;13.05;;;4.50;;
58214;SDS011;44011;52.218;1.480;2022-12-20T06:37:29;16.08;;;5.43;;
58214;SDS011;44011;52.218;1.480;2022-12-20T06:39:54;15.30;;;5.00;;
58214;SDS011;44011;52.218;1.480;2022-12-20T06:42:20;13.23;;;5.20;;
58214;SDS011;44011;52.218;1.480;2022-12-20T06:44:45;18.45;;;5.28;;
58214;SDS011;44011;52.218;1.480;2022-12-20T06:47:10;22.95;;;5.15;;
58214;SDS011;44011;52.218;1.480;2022-12-20T06:49:36;11.93;;;4.93;;
58214;SDS011;44011;52.218;1.480;2022-12-20T06:52:01;14.32;;;4.88;;
58214;SDS011;44011;52.218;1.480;2022-12-20T06:54:27;15.88;;;5.38;;
58214;SDS011;44011;52.218;1.480;2022-12-20T06:56:52;15.55;;;6.28;;
58214;SDS011;44011;52.218;1.480;2022-12-20T06:59:17;24.45;;;7.43;;
58214;SDS011;44011;52.218;1.480;2022-12-20T07:01:43;16.38;;;4.63;;
58214;SDS011;44011;52.218;1.480;2022-12-20T07:04:09;18.63;;;5.38;;
58214;SDS011;44011;52.218;1.480;2022-12-20T07:06:34;19.02;;;5.22;;
58214;SDS011;44011;52.218;1.480;2022-12-20T07:09:00;10.95;;;4.40;;
58214;SDS011;44011;52.218;1.480;2022-12-20T07:11:26;13.68;;;4.45;;
58214;SDS011;44011;52.218;1.480;2022-12-20T07:13:57;14.98;;;4.78;;
58214;SDS011;44011;52.218;1.480;2022-12-20T07:16:24;13.68;;;4.82;;
58214;SDS011;44011;52.218;1.480;2022-12-20T07:18:50;15.77;;;5.35;;
58214;SDS011;44011;52.218;1.480;2022-12-20T07:21:16;16.52;;;5.88;;
58214;SDS011;44011;52.218;1.480;2022-12-20T07:23:43;17.58;;;5.80;;
58214;SDS011;44011;52.218;1.480;2022-12-20T07:26:08;21.77;;;5.88;;
58214;SDS011;44011;52.218;1.480;2022-12-20T07:28:34;16.20;;;5.28;;
58214;SDS011;44011;52.218;1.480;2022-12-20T07:31:00;14.65;;;5.70;;
58214;SDS011;44011;52.218;1.480;2022-12-20T07:33:26;16.42;;;5.53;;
58214;SDS011;44011;52.218;1.480;2022-12-20T07:35:51;19.83;;;7.05;;
58214;SDS011;44011;52.218;1.480;2022-12-20T07:38:23;26.60;;;5.70;;
58214;SDS011;44011;52.218;1.480;2022-12-20T07:40:48;18.77;;;6.57;;
58214;SDS011;44011;52.218;1.480;2022-12-20T07:43:14;20.83;;;5.82;;
58214;SDS011;44011;52.218;1.480;2022-12-20T07:45:40;20.20;;;6.05;;
58214;SDS011;44011;52.218;1.480;2022-12-20T07:48:05;15.50;;;5.30;;
58214;SDS011;44011;52.218;1.480;2022-12-20T07:50:31;16.33;;;5.80;;
58214;SDS011;44011;52.218;1.480;2022-12-20T07:52:57;18.92;;;5.57;;
58214;SDS011;44011;52.218;1.480;2022-12-20T07:55:23;15.18;;;5.75;;
58214;SDS011;44011;52.218;1.480;2022-12-20T07:57:53;18.15;;;5.53;;
58214;SDS011;44011;52.218;1.480;2022-12-20T08:00:21;19.27;;;5.43;;
58214;SDS011;44011;52.218;1.480;2022-12-20T08:02:48;14.43;;;5.38;;
58214;SDS011;44011;52.218;1.480;2022-12-20T08:05:14;13.63;;;5.95;;
58214;SDS011;44011;52.218;1.480;2022-12-20T08:07:40;18.40;;;5.82;;
58214;SDS011;44011;52.218;1.480;2022-12-20T08:10:07;22.23;;;6.35;;
58214;SDS011;44011;52.218;1.480;2022-12-20T08:12:33;14.65;;;5.38;;
58214;SDS011;44011;52.218;1.480;2022-12-20T08:14:59;14.13;;;5.18;;
58214;SDS011;44011;52.218;1.480;2022-12-20T08:17:24;10.93;;;5.05;;
58214;SDS011;44011;52.218;1.480;2022-12-20T08:19:50;15.65;;;5.75;;
58214;SDS011;44011;52.218;1.480;2022-12-20T08:22:16;19.25;;;6.55;;
58214;SDS011;44011;52.218;1.480;2022-12-20T08:24:42;11.57;;;5.82;;
58214;SDS011;44011;52.218;1.480;2022-12-20T08:27:07;19.08;;;6.38;;
58214;SDS011;44011;52.218;1.480;2022-12-20T08:29:33;19.38;;;6.43;;
58214;SDS011;44011;52.218;1.480;2022-12-20T08:31:58;16.02;;;6.25;;
58214;SDS011;44011;52.218;1.480;2022-12-20T08:34:23;22.00;;;6.05;;
58214;SDS011;44011;52.218;1.480;2022-12-20T08:36:49;21.73;;;6.13;;
58214;SDS011;44011;52.218;1.480;2022-12-20T08:39:15;13.15;;;5.50;;
58214;SDS011;44011;52.218;1.480;2022-12-20T08:41:41;21.25;;;6.07;;
58214;SDS011;44011;52.218;1.480;2022-12-20T08:44:06;18.20;;;6.75;;
58214;SDS011;44011;52.218;1.480;2022-12-20T08:46:33;11.20;;;4.15;;
58214;SDS011;44011;52.218;1.480;2022-12-20T08:48:58;5.47;;;2.00;;
58214;SDS011;44011;52.218;1.480;2022-12-20T08:51:24;3.08;;;1.58;;
58214;SDS011;44011;52.218;1.480;2022-12-20T08:53:49;2.60;;;1.35;;
58214;SDS011;44011;52.218;1.480;2022-12-20T08:56:15;1.38;;;0.95;;
58214;SDS011;44011;52.218;1.480;2022-12-20T08:58:41;1.20;;;0.95;;
58214;SDS011;44011;52.218;1.480;2022-12-20T09:01:11;1.10;;;0.85;;
58214;SDS011;44011;52.218;1.480;2022-12-20T09:03:37;1.88;;;0.95;;
58214;SDS011;44011;52.218;1.480;2022-12-20T09:06:06;5.60;;;1.30;;
58214;SDS011;44011;52.218;1.480;2022-12-20T09:08:33;1.60;;;1.13;;
58214;SDS011;44011;52.218;1.480;2022-12-20T09:11:02;2.20;;;1.13;;
58214;SDS011;44011;52.218;1.480;2022-12-20T09:13:28;1.38;;;1.10;;
58214;SDS011;44011;52.218;1.480;2022-12-20T09:15:53;2.33;;;1.33;;
58214;SDS011;44011;52.218;1.480;2022-12-20T09:18:18;2.13;;;1.38;;
58214;SDS011;44011;52.218;1.480;2022-12-20T09:20:44;5.60;;;1.90;;
58214;SDS011;44011;52.218;1.480;2022-12-20T09:23:09;4.13;;;1.90;;
58214;SDS011;44011;52.218;1.480;2022-12-20T09:25:35;4.13;;;2.15;;
58214;SDS011;44011;52.218;1.480;2022-12-20T09:28:01;2.20;;;1.40;;
58214;SDS011;44011;52.218;1.480;2022-12-20T09:30:27;4.00;;;1.40;;
58214;SDS011;44011;52.218;1.480;2022-12-20T09:32:52;1.75;;;1.40;;
58214;SDS011;44011;52.218;1.480;2022-12-20T09:35:17;3.60;;;1.65;;
58214;SDS011;44011;52.218;1.480;2022-12-20T09:37:43;2.63;;;1.42;;
58214;SDS011;44011;52.218;1.480;2022-12-20T09:40:18;3.40;;;2.10;;
58214;SDS011;44011;52.218;1.480;2022-12-20T09:42:45;3.70;;;2.28;;
58214;SDS011;44011;52.218;1.480;2022-12-20T09:45:12;3.72;;;2.45;;
58214;SDS011;44011;52.218;1.480;2022-12-20T09:47:41;3.83;;;2.35;;
58214;SDS011;44011;52.218;1.480;2022-12-20T09:50:10;2.83;;;1.95;;
58214;SDS011;44011;52.218;1.480;2022-12-20T10:00:23;1.83;;;1.48;;
58214;SDS011;44011;52.218;1.480;2022-12-20T10:02:48;2.83;;;1.60;;
58214;SDS011;44011;52.218;1.480;2022-12-20T10:05:19;6.15;;;2.15;;
58214;SDS011;44011;52.218;1.480;2022-12-20T10:08:06;3.92;;;1.45;;
58214;SDS011;44011;52.218;1.480;2022-12-20T10:13:22;1.33;;;1.00;;
58214;SDS011;44011;52.218;1.480;2022-12-20T10:15:51;2.10;;;1.10;;
58214;SDS011;44011;52.218;1.480;2022-12-20T10:18:29;1.65;;;1.10;;
58214;SDS011;44011;52.218;1.480;2022-12-20T10:21:10;1.17;;;1.00;;
58214;SDS011;44011;52.218;1.480;2022-12-20T10:23:39;1.70;;;0.80;;
58214;SDS011;44011;52.218;1.480;2022-12-20T10:26:10;1.50;;;0.90;;
58214;SDS011;44011;52.218;1.480;2022-12-20T10:28:36;0.60;;;0.60;;
58214;SDS011;44011;52.218;1.480;2022-12-20T10:31:05;1.67;;;0.80;;
58214;SDS011;44011;52.218;1.480;2022-12-20T10:33:32;0.73;;;0.50;;
58214;SDS011;44011;52.218;1.480;2022-12-20T10:38:45;0.60;;;0.60;;
58214;SDS011;44011;52.218;1.480;2022-12-20T10:41:14;0.40;;;0.40;;
58214;SDS011;44011;52.218;1.480;2022-12-20T10:43:48;1.75;;;0.50;;
58214;SDS011;44011;52.218;1.480;2022-12-20T10:46:14;1.20;;;0.50;;
58214;SDS011;44011;52.218;1.480;2022-12-20T10:48:43;0.77;;;0.50;;
58214;SDS011;44011;52.218;1.480;2022-12-20T10:53:35;1.42;;;0.60;;
58214;SDS011;44011;52.218;1.480;2022-12-20T10:56:10;0.52;;;0.50;;
58214;SDS011;44011;52.218;1.480;2022-12-20T10:58:37;0.93;;;0.75;;
58214;SDS011;44011;52.218;1.480;2022-12-20T11:01:21;0.40;;;0.40;;
58214;SDS011;44011;52.218;1.480;2022-12-20T11:04:02;0.80;;;0.80;;
58214;SDS011;44011;52.218;1.480;2022-12-20T11:06:39;0.60;;;0.60;;
58214;SDS011;44011;52.218;1.480;2022-12-20T11:11:58;1.63;;;0.40;;
58214;SDS011;44011;52.218;1.480;2022-12-20T11:16:50;2.30;;;0.73;;
58214;SDS011;44011;52.218;1.480;2022-12-20T11:27:26;3.53;;;0.65;;
58214;SDS011;44011;52.218;1.480;2022-12-20T11:32:41;0.80;;;0.50;;
58214;SDS011;44011;52.218;1.480;2022-12-20T11:35:15;0.88;;;0.55;;
58214;SDS011;44011;52.218;1.480;2022-12-20T11:40:29;1.27;;;0.70;;
58214;SDS011;44011;52.218;1.480;2022-12-20T11:42:59;1.73;;;0.68;;
58214;SDS011;44011;52.218;1.480;2022-12-20T11:45:40;1.23;;;0.95;;
58214;SDS011;44011;52.218;1.480;2022-12-20T11:55:50;1.45;;;0.50;;
58214;SDS011;44011;52.218;1.480;2022-12-20T11:58:24;2.00;;;0.50;;
58214;SDS011;44011;52.218;1.480;2022-12-20T12:00:55;1.10;;;0.47;;
58214;SDS011;44011;52.218;1.480;2022-12-20T12:03:25;2.50;;;0.55;;
58214;SDS011;44011;52.218;1.480;2022-12-20T12:05:53;0.68;;;0.57;;
58214;SDS011;44011;52.218;1.480;2022-12-20T12:08:30;1.52;;;0.50;;
58214;SDS011;44011;52.218;1.480;2022-12-20T12:11:03;1.63;;;0.70;;
58214;SDS011;44011;52.218;1.480;2022-12-20T12:13:30;0.95;;;0.50;;
58214;SDS011;44011;52.218;1.480;2022-12-20T12:16:02;1.05;;;0.60;;
58214;SDS011;44011;52.218;1.480;2022-12-20T12:18:30;2.45;;;0.60;;
58214;SDS011;44011;52.218;1.480;2022-12-20T12:26:04;4.03;;;1.20;;
58214;SDS011;44011;52.218;1.480;2022-12-20T12:28:31;3.67;;;0.63;;
58214;SDS011;44011;52.218;1.480;2022-12-20T12:30:58;4.90;;;0.80;;
58214;SDS011;44011;52.218;1.480;2022-12-20T12:33:26;4.60;;;1.23;;
58214;SDS011;44011;52.218;1.480;2022-12-20T12:46:09;6.20;;;1.25;;
58214;SDS011;44011;52.218;1.480;2022-12-20T12:48:58;4.68;;;1.50;;
58214;SDS011;44011;52.218;1.480;2022-12-20T12:51:29;4.47;;;1.33;;
58214;SDS011;44011;52.218;1.480;2022-12-20T12:56:47;3.13;;;0.95;;
58214;SDS011;44011;52.218;1.480;2022-12-20T13:17:49;4.22;;;1.00;;
58214;SDS011;44011;52.218;1.480;2022-12-20T13:20:20;6.63;;;1.50;;
58214;SDS011;44011;52.218;1.480;2022-12-20T13:25:31;7.15;;;1.65;;
58214;SDS011;44011;52.218;1.480;2022-12-20T13:30:37;6.03;;;1.85;;
58214;SDS011;44011;52.218;1.480;2022-12-20T13:33:15;7.88;;;1.55;;
58214;SDS011;44011;52.218;1.480;2022-12-20T13:35:46;5.88;;;1.65;;
58214;SDS011;44011;52.218;1.480;2022-12-20T13:41:01;8.75;;;1.75;;
58214;SDS011;44011;52.218;1.480;2022-12-20T13:43:35;7.95;;;1.58;;
58214;SDS011;44011;52.218;1.480;2022-12-20T13:51:01;7.88;;;1.77;;
58214;SDS011;44011;52.218;1.480;2022-12-20T13:53:27;9.13;;;1.35;;
58214;SDS011;44011;52.218;1.480;2022-12-20T13:55:53;6.82;;;1.13;;
58214;SDS011;44011;52.218;1.480;2022-12-20T13:58:19;3.75;;;0.95;;
58214;SDS011;44011;52.218;1.480;2022-12-20T14:00:46;10.88;;;2.00;;
58214;SDS011;44011;52.218;1.480;2022-12-20T14:03:22;19.98;;;2.67;;
58214;SDS011;44011;52.218;1.480;2022-12-20T14:05:48;7.35;;;1.42;;
58214;SDS011;44011;52.218;1.480;2022-12-20T14:08:16;12.57;;;1.67;;
58214;SDS011;44011;52.218;1.480;2022-12-20T14:10:42;8.88;;;1.27;;
58214;SDS011;44011;52.218;1.480;2022-12-20T14:13:26;10.60;;;1.75;;
58214;SDS011;44011;52.218;1.480;2022-12-20T14:15:52;8.63;;;1.30;;
58214;SDS011;44011;52.218;1.480;2022-12-20T14:20:44;2.03;;;0.77;;
58214;SDS011;44011;52.218;1.480;2022-12-20T14:23:11;5.18;;;1.25;;
58214;SDS011;44011;52.218;1.480;2022-12-20T14:25:54;8.57;;;2.38;;
58214;SDS011;44011;52.218;1.480;2022-12-20T14:29:03;5.95;;;2.05;;
58214;SDS011;44011;52.218;1.480;2022-12-20T14:36:38;8.48;;;1.30;;
58214;SDS011;44011;52.218;1.480;2022-12-20T14:41:54;9.07;;;1.20;;
58214;SDS011;44011;52.218;1.480;2022-12-20T14:44:20;5.47;;;1.70;;
58214;SDS011;44011;52.218;1.480;2022-12-20T14:46:47;9.68;;;2.08;;
58214;SDS011;44011;52.218;1.480;2022-12-20T14:49:26;9.18;;;1.80;;
58214;SDS011;44011;52.218;1.480;2022-12-20T14:52:03;10.75;;;1.58;;
58214;SDS011;44011;52.218;1.480;2022-12-20T14:54:30;9.07;;;1.55;;
58214;SDS011;44011;52.218;1.480;2022-12-20T14:56:55;10.23;;;1.80;;
58214;SDS011;44011;52.218;1.480;2022-12-20T14:59:25;4.72;;;1.67;;
58214;SDS011;44011;52.218;1.480;2022-12-20T15:01:50;8.38;;;1.48;;
58214;SDS011;44011;52.218;1.480;2022-12-20T15:04:23;10.70;;;2.30;;
58214;SDS011;44011;52.218;1.480;2022-12-20T15:06:54;12.55;;;2.15;;
58214;SDS011;44011;52.218;1.480;2022-12-20T15:09:20;9.95;;;1.85;;
58214;SDS011;44011;52.218;1.480;2022-12-20T15:11:46;12.07;;;1.55;;
58214;SDS011;44011;52.218;1.480;2022-12-20T15:14:20;5.28;;;1.77;;
58214;SDS011;44011;52.218;1.480;2022-12-20T15:16:46;12.67;;;1.87;;
58214;SDS011;44011;52.218;1.480;2022-12-20T15:19:12;12.23;;;2.30;;
58214;SDS011;44011;52.218;1.480;2022-12-20T15:21:41;12.50;;;2.42;;
58214;SDS011;44011;52.218;1.480;2022-12-20T15:24:13;8.68;;;1.77;;
58214;SDS011;44011;52.218;1.480;2022-12-20T15:26:39;9.52;;;1.58;;
58214;SDS011;44011;52.218;1.480;2022-12-20T15:29:04;9.48;;;1.83;;
58214;SDS011;44011;52.218;1.480;2022-12-20T15:31:31;7.82;;;2.47;;
58214;SDS011;44011;52.218;1.480;2022-12-20T15:33:57;16.05;;;2.42;;
58214;SDS011;44011;52.218;1.480;2022-12-20T15:36:23;6.07;;;2.13;;
58214;SDS011;44011;52.218;1.480;2022-12-20T15:38:50;7.82;;;1.75;;
58214;SDS011;44011;52.218;1.480;2022-12-20T15:41:18;10.40;;;2.55;;
58214;SDS011;44011;52.218;1.480;2022-12-20T15:43:44;9.93;;;2.65;;
58214;SDS011;44011;52.218;1.480;2022-12-20T15:46:09;8.32;;;2.67;;
58214;SDS011;44011;52.218;1.480;2022-12-20T15:48:34;7.78;;;2.30;;
58214;SDS011;44011;52.218;1.480;2022-12-20T15:51:00;9.30;;;2.28;;
58214;SDS011;44011;52.218;1.480;2022-12-20T15:53:27;14.82;;;2.47;;
58214;SDS011;44011;52.218;1.480;2022-12-20T15:55:54;9.57;;;2.30;;
58214;SDS011;44011;52.218;1.480;2022-12-20T15:58:21;8.43;;;2.22;;
58214;SDS011;44011;52.218;1.480;2022-12-20T16:00:47;7.70;;;2.20;;
58214;SDS011;44011;52.218;1.480;2022-12-20T16:03:21;7.45;;;2.50;;
58214;SDS011;44011;52.218;1.480;2022-12-20T16:05:47;19.65;;;3.30;;
58214;SDS011;44011;52.218;1.480;2022-12-20T16:08:13;10.13;;;2.85;;
58214;SDS011;44011;52.218;1.480;2022-12-20T16:10:39;11.32;;;2.22;;
58214;SDS011;44011;52.218;1.480;2022-12-20T16:13:04;6.63;;;2.10;;
58214;SDS011;44011;52.218;1.480;2022-12-20T16:15:31;9.18;;;2.53;;
58214;SDS011;44011;52.218;1.480;2022-12-20T16:17:57;11.77;;;3.10;;
58214;SDS011;44011;52.218;1.480;2022-12-20T16:20:22;15.90;;;2.70;;
58214;SDS011;44011;52.218;1.480;2022-12-20T16:22:47;17.45;;;3.38;;
58214;SDS011;44011;52.218;1.480;2022-12-20T16:25:23;14.55;;;2.30;;
58214;SDS011;44011;52.218;1.480;2022-12-20T16:27:49;7.05;;;1.80;;
58214;SDS011;44011;52.218;1.480;2022-12-20T16:30:14;7.30;;;3.03;;
58214;SDS011;44011;52.218;1.480;2022-12-20T16:32:40;6.07;;;2.20;;
58214;SDS011;44011;52.218;1.480;2022-12-20T16:35:05;9.70;;;3.08;;
58214;SDS011;44011;52.218;1.480;2022-12-20T16:37:30;17.00;;;3.55;;
58214;SDS011;44011;52.218;1.480;2022-12-20T16:39:56;6.70;;;2.15;;
58214;SDS011;44011;52.218;1.480;2022-12-20T16:42:21;8.50;;;2.35;;
58214;SDS011;44011;52.218;1.480;2022-12-20T16:44:49;11.00;;;2.55;;
58214;SDS011;44011;52.218;1.480;2022-12-20T16:47:15;9.93;;;3.53;;
58214;SDS011;44011;52.218;1.480;2022-12-20T16:49:40;11.68;;;2.72;;
58214;SDS011;44011;52.218;1.480;2022-12-20T16:52:08;7.75;;;2.08;;